Time;durP1;ratioP1;P1;durP2;ratioP2;P2;SDS_P1;SDS_P2;PMS_P1;PMS_P2;Temp;Humidity;BMP_temperature;BMP_pressure;BME280_temperature;BME280_humidity;BME280_pressure;Samples;Min_cycle;Max_cycle;Signal;HPM_P1;HPM_P2
2022/04/20 00:00:39;;;;;;;7.38;3.17;;;;;;;;;;4990706;28;20050;-60
2022/04/20 00:03:05;;;;;;;8.68;3.13;;;;;;;;;;4985322;28;20077;-60
2022/04/20 00:05:34;;;;;;;6.47;2.67;;;;;;;;;;4990846;28;20034;-60
2022/04/20 00:08:00;;;;;;;;;;;;;;;;;;4991171;28;20049;-59
2022/04/20 00:10:27;;;;;;;7.55;3.03;;;;;;;;;;4985026;28;19941;-60
2022/04/20 00:12:54;;;;;;;11.20;3.67;;;;;;;;;;4991708;28;20050;-59
2022/04/20 00:15:20;;;;;;;9.00;2.47;;;;;;;;;;4973358;28;20131;-59
2022/04/20 00:17:47;;;;;;;7.63;3.45;;;;;;;;;;4991349;28;20046;-59
2022/04/20 00:20:14;;;;;;;9.82;4.30;;;;;;;;;;4985004;28;20053;-58
2022/04/20 00:22:42;;;;;;;8.38;3.10;;;;;;;;;;4991530;28;20049;-58
2022/04/20 00:25:09;;;;;;;9.30;3.50;;;;;;;;;;4984614;28;20056;-58
2022/04/20 00:27:36;;;;;;;7.57;2.55;;;;;;;;;;4991453;28;20132;-59
2022/04/20 00:30:03;;;;;;;7.38;2.53;;;;;;;;;;4985014;28;20054;-60
2022/04/20 00:32:30;;;;;;;7.80;3.28;;;;;;;;;;4992109;28;20065;-60
2022/04/20 00:35:02;;;;;;;7.75;3.40;;;;;;;;;;4997500;28;20050;-59
2022/04/20 00:37:28;;;;;;;8.13;3.38;;;;;;;;;;4992212;28;20056;-58
2022/04/20 00:39:56;;;;;;;12.18;3.75;;;;;;;;;;4982118;28;20053;-58
2022/04/20 00:42:23;;;;;;;8.87;3.93;;;;;;;;;;5004739;28;20046;-59
2022/04/20 00:44:51;;;;;;;10.27;3.25;;;;;;;;;;4986228;28;20306;-60
2022/04/20 00:47:18;;;;;;;9.27;3.65;;;;;;;;;;4991986;28;20074;-58
2022/04/20 00:49:46;;;;;;;8.68;3.55;;;;;;;;;;4990461;28;20136;-60
2022/04/20 00:52:13;;;;;;;8.93;3.10;;;;;;;;;;4988552;28;20080;-58
2022/04/20 00:54:41;;;;;;;9.77;3.55;;;;;;;;;;4991269;28;20086;-58
2022/04/20 00:57:12;;;;;;;8.38;3.25;;;;;;;;;;4985638;28;20129;-57
2022/04/20 00:59:40;;;;;;;11.60;3.95;;;;;;;;;;4991454;28;20060;-57
2022/04/20 01:02:06;;;;;;;8.25;3.85;;;;;;;;;;4971331;28;20074;-58
2022/04/20 01:04:33;;;;;;;8.48;3.55;;;;;;;;;;4972215;28;20082;-58
2022/04/20 01:06:59;;;;;;;8.35;3.13;;;;;;;;;;4966844;28;20116;-58
2022/04/20 01:09:26;;;;;;;9.45;3.80;;;;;;;;;;4971028;28;20085;-58
2022/04/20 01:11:53;;;;;;;8.75;3.95;;;;;;;;;;4970395;28;20057;-58
2022/04/20 01:14:21;;;;;;;11.48;3.63;;;;;;;;;;4990744;28;20064;-58
2022/04/20 01:16:48;;;;;;;8.43;3.67;;;;;;;;;;4984696;28;20054;-58
2022/04/20 01:19:14;;;;;;;6.78;3.05;;;;;;;;;;4990233;28;20049;-58
2022/04/20 01:21:42;;;;;;;7.53;3.50;;;;;;;;;;4984443;28;20114;-60
2022/04/20 01:24:09;;;;;;;7.85;3.45;;;;;;;;;;4981496;28;20054;-59
2022/04/20 01:26:36;;;;;;;7.70;3.13;;;;;;;;;;4975629;28;20046;-59
2022/04/20 01:29:03;;;;;;;11.95;3.00;;;;;;;;;;4980825;28;20091;-59
2022/04/20 01:31:30;;;;;;;7.65;2.97;;;;;;;;;;4987877;28;20050;-58
2022/04/20 01:33:57;;;;;;;8.90;3.38;;;;;;;;;;4989231;28;20054;-60
2022/04/20 01:36:24;;;;;;;9.77;3.58;;;;;;;;;;4991520;28;20049;-56
2022/04/20 01:38:52;;;;;;;10.07;3.35;;;;;;;;;;4986909;28;20038;-59
2022/04/20 01:41:19;;;;;;;9.85;3.67;;;;;;;;;;4989579;28;20054;-59
2022/04/20 01:43:47;;;;;;;10.63;3.28;;;;;;;;;;4973439;28;20116;-58
2022/04/20 01:46:15;;;;;;;8.45;3.28;;;;;;;;;;5000949;28;20049;-60
2022/04/20 01:48:42;;;;;;;8.23;3.27;;;;;;;;;;4977289;28;20054;-58
2022/04/20 01:53:54;;;;;;;7.20;2.42;;;;;;;;;;4985791;28;20058;-59
2022/04/20 01:56:20;;;;;;;8.02;3.15;;;;;;;;;;4990352;28;20057;-59
2022/04/20 01:58:47;;;;;;;7.45;2.65;;;;;;;;;;4976750;28;20070;-59
2022/04/20 02:03:57;;;;;;;7.72;3.17;;;;;;;;;;4986453;28;20046;-58
2022/04/20 02:06:24;;;;;;;14.98;3.38;;;;;;;;;;4992783;28;20072;-58
2022/04/20 02:08:55;;;;;;;7.55;2.90;;;;;;;;;;4989091;28;20068;-60
2022/04/20 02:11:22;;;;;;;6.72;2.80;;;;;;;;;;4992747;28;20057;-59
2022/04/20 02:13:48;;;;;;;8.85;3.00;;;;;;;;;;4988808;28;20049;-59
2022/04/20 02:16:15;;;;;;;6.03;2.55;;;;;;;;;;4992981;28;20049;-58
2022/04/20 02:18:41;;;;;;;8.00;2.85;;;;;;;;;;4988985;28;20148;-58
2022/04/20 02:21:08;;;;;;;6.57;2.13;;;;;;;;;;4992713;28;20060;-59
2022/04/20 02:23:34;;;;;;;5.78;2.83;;;;;;;;;;5006800;28;20333;-58
2022/04/20 02:26:03;;;;;;;6.47;2.72;;;;;;;;;;4992341;28;20069;-55
2022/04/20 02:28:29;;;;;;;8.18;3.08;;;;;;;;;;4992419;28;20133;-58
2022/04/20 02:30:56;;;;;;;7.03;2.83;;;;;;;;;;4989833;28;20053;-56
2022/04/20 02:33:23;;;;;;;7.10;2.92;;;;;;;;;;5009164;28;20049;-58
2022/04/20 02:35:50;;;;;;;6.45;2.58;;;;;;;;;;5003411;28;20084;-57
2022/04/20 02:38:17;;;;;;;7.28;2.63;;;;;;;;;;5028698;28;20145;-58
2022/04/20 02:40:44;;;;;;;6.85;2.88;;;;;;;;;;4993493;28;20050;-58
2022/04/20 02:43:12;;;;;;;7.00;2.55;;;;;;;;;;4987475;28;20117;-58
2022/04/20 02:45:39;;;;;;;8.90;3.20;;;;;;;;;;4978213;28;20121;-57
2022/04/20 02:48:06;;;;;;;7.88;2.92;;;;;;;;;;4972316;28;20086;-61
2022/04/20 02:50:33;;;;;;;6.95;2.42;;;;;;;;;;4999590;28;20096;-61
2022/04/20 02:52:59;;;;;;;6.65;2.85;;;;;;;;;;4993324;28;20102;-60
2022/04/20 02:55:26;;;;;;;7.28;2.05;;;;;;;;;;4981013;28;20049;-59
2022/04/20 02:57:52;;;;;;;7.68;2.35;;;;;;;;;;5012125;28;20053;-61
2022/04/20 03:00:20;;;;;;;6.00;2.28;;;;;;;;;;5004151;28;20046;-62
2022/04/20 03:02:47;;;;;;;5.45;2.15;;;;;;;;;;4992756;28;20057;-62
2022/04/20 03:05:14;;;;;;;6.13;2.55;;;;;;;;;;5005148;28;20050;-61
2022/04/20 03:07:40;;;;;;;8.82;2.33;;;;;;;;;;4992245;28;20046;-59
2022/04/20 03:10:07;;;;;;;7.20;2.70;;;;;;;;;;4991728;28;20054;-61
2022/04/20 03:12:34;;;;;;;5.90;2.50;;;;;;;;;;4970273;28;20074;-62
2022/04/20 03:15:04;;;;;;;7.60;2.70;;;;;;;;;;4973636;28;20058;-63
2022/04/20 03:17:32;;;;;;;7.55;2.72;;;;;;;;;;4986674;28;20056;-60
2022/04/20 03:19:58;;;;;;;5.85;2.25;;;;;;;;;;4993131;28;20137;-61
2022/04/20 03:22:25;;;;;;;5.90;2.20;;;;;;;;;;4989126;28;20050;-58
2022/04/20 03:24:52;;;;;;;6.03;2.70;;;;;;;;;;4993213;28;20065;-58
2022/04/20 03:27:21;;;;;;;5.70;2.28;;;;;;;;;;4988744;28;20080;-58
2022/04/20 03:29:48;;;;;;;;;;;;;;;;;;4992547;28;20046;-58
2022/04/20 03:32:16;;;;;;;4.85;2.20;;;;;;;;;;4998033;28;19925;-57
2022/04/20 03:34:47;;;;;;;7.65;2.92;;;;;;;;;;5012854;28;20045;-57
2022/04/20 03:37:13;;;;;;;6.10;2.35;;;;;;;;;;4979286;28;20057;-59
2022/04/20 03:39:40;;;;;;;5.20;2.40;;;;;;;;;;4990380;28;20129;-55
2022/04/20 03:42:09;;;;;;;5.28;2.15;;;;;;;;;;4989351;28;20060;-60
2022/04/20 03:44:37;;;;;;;9.25;1.98;;;;;;;;;;4992228;28;20057;-56
2022/04/20 03:47:04;;;;;;;7.93;2.43;;;;;;;;;;4974465;28;20050;-57
2022/04/20 03:49:31;;;;;;;4.78;2.00;;;;;;;;;;4992301;28;20312;-58
2022/04/20 03:52:01;;;;;;;6.20;2.45;;;;;;;;;;4988445;28;20080;-57
2022/04/20 03:54:28;;;;;;;4.68;2.05;;;;;;;;;;4992675;28;20141;-57
2022/04/20 03:57:07;;;;;;;4.95;2.10;;;;;;;;;;4992539;28;20093;-57
2022/04/20 03:59:35;;;;;;;5.07;2.10;;;;;;;;;;4972661;28;20042;-57
2022/04/20 04:02:01;;;;;;;4.88;2.15;;;;;;;;;;4975834;28;20068;-57
2022/04/20 04:04:28;;;;;;;7.40;2.40;;;;;;;;;;4987299;28;20046;-58
2022/04/20 04:06:55;;;;;;;4.95;2.15;;;;;;;;;;5007282;28;20050;-56
2022/04/20 04:09:23;;;;;;;3.70;1.58;;;;;;;;;;4984392;28;20046;-58
2022/04/20 04:11:50;;;;;;;5.53;2.20;;;;;;;;;;4993289;28;20060;-59
2022/04/20 04:14:18;;;;;;;6.18;2.10;;;;;;;;;;5006939;28;20054;-57
2022/04/20 04:16:45;;;;;;;5.60;1.80;;;;;;;;;;4989482;28;20053;-56
2022/04/20 04:19:11;;;;;;;4.07;1.70;;;;;;;;;;4979874;28;20046;-58
2022/04/20 04:21:39;;;;;;;5.93;2.08;;;;;;;;;;4990283;28;20045;-56
2022/04/20 04:24:07;;;;;;;5.13;1.90;;;;;;;;;;5001621;28;20053;-55
2022/04/20 04:26:35;;;;;;;4.85;2.00;;;;;;;;;;4991725;28;20046;-57
2022/04/20 04:29:02;;;;;;;6.47;2.28;;;;;;;;;;4982796;28;20046;-55
2022/04/20 04:31:29;;;;;;;7.50;2.13;;;;;;;;;;4969466;28;20046;-53
2022/04/20 04:33:55;;;;;;;6.22;2.08;;;;;;;;;;4983680;28;20122;-57
2022/04/20 04:36:22;;;;;;;4.53;2.00;;;;;;;;;;4988712;28;20049;-57
2022/04/20 04:38:49;;;;;;;5.45;1.95;;;;;;;;;;4988255;28;20049;-57
2022/04/20 04:41:15;;;;;;;5.22;2.28;;;;;;;;;;4991097;28;20096;-57
2022/04/20 04:43:43;;;;;;;4.07;2.03;;;;;;;;;;4992231;28;20050;-58
2022/04/20 04:48:54;;;;;;;5.15;2.05;;;;;;;;;;4992105;28;20054;-57
2022/04/20 04:51:21;;;;;;;5.97;2.28;;;;;;;;;;4985871;28;20064;-57
2022/04/20 04:53:47;;;;;;;6.00;2.33;;;;;;;;;;4989756;28;20078;-59
2022/04/20 04:56:14;;;;;;;4.60;2.20;;;;;;;;;;4984634;28;20165;-58
2022/04/20 04:58:41;;;;;;;6.13;1.80;;;;;;;;;;4990575;28;20049;-56
2022/04/20 05:01:09;;;;;;;7.28;2.05;;;;;;;;;;4986582;28;20057;-58
2022/04/20 05:03:35;;;;;;;3.45;1.55;;;;;;;;;;5006243;28;20053;-58
2022/04/20 05:06:02;;;;;;;5.25;2.10;;;;;;;;;;4990156;28;20061;-55
2022/04/20 05:08:29;;;;;;;6.15;2.28;;;;;;;;;;4988709;28;20061;-58
2022/04/20 05:10:55;;;;;;;4.47;1.95;;;;;;;;;;4980195;28;20046;-58
2022/04/20 05:13:22;;;;;;;5.50;2.20;;;;;;;;;;5003530;28;20050;-58
2022/04/20 05:15:48;;;;;;;7.10;2.53;;;;;;;;;;4983809;28;20049;-57
2022/04/20 05:18:16;;;;;;;5.00;1.77;;;;;;;;;;4988701;28;20100;-59
2022/04/20 05:20:44;;;;;;;4.93;1.90;;;;;;;;;;4982668;28;20060;-57
2022/04/20 05:23:12;;;;;;;5.28;2.17;;;;;;;;;;4989619;28;20077;-53
2022/04/20 05:25:39;;;;;;;;;;;;;;;;;;4985438;28;20041;-55
2022/04/20 05:28:06;;;;;;;4.82;1.50;;;;;;;;;;5011579;28;19932;-55
2022/04/20 05:30:34;;;;;;;5.68;1.52;;;;;;;;;;4992084;28;20104;-54
2022/04/20 05:33:01;;;;;;;4.45;1.80;;;;;;;;;;4984894;28;20050;-55
2022/04/20 05:35:29;;;;;;;3.40;1.70;;;;;;;;;;4984607;28;20065;-57
2022/04/20 05:43:32;;;;;;;6.13;2.03;;;;;;;;;;4991897;28;20049;-57
2022/04/20 05:45:58;;;;;;;6.10;1.75;;;;;;;;;;4987293;28;20054;-56
2022/04/20 05:48:25;;;;;;;3.22;1.52;;;;;;;;;;5001744;28;20123;-58
2022/04/20 05:50:53;;;;;;;4.95;1.70;;;;;;;;;;5028885;28;20053;-57
2022/04/20 05:53:20;;;;;;;3.38;1.55;;;;;;;;;;4986608;28;20053;-57
2022/04/20 05:55:46;;;;;;;5.78;2.30;;;;;;;;;;4993594;28;20061;-57
2022/04/20 05:58:13;;;;;;;5.75;1.85;;;;;;;;;;4987482;28;20050;-58
2022/04/20 06:00:39;;;;;;;5.72;2.35;;;;;;;;;;4992826;28;20061;-58
2022/04/20 06:03:07;;;;;;;5.25;1.90;;;;;;;;;;4987038;28;20141;-59
2022/04/20 06:05:33;;;;;;;5.50;2.15;;;;;;;;;;4993292;28;20046;-56
2022/04/20 06:08:01;;;;;;;5.18;1.90;;;;;;;;;;4986917;28;20053;-58
2022/04/20 06:10:29;;;;;;;5.47;1.88;;;;;;;;;;4990782;28;20054;-56
2022/04/20 06:12:56;;;;;;;10.57;1.90;;;;;;;;;;4986337;28;20045;-57
2022/04/20 06:15:23;;;;;;;4.57;1.80;;;;;;;;;;4993350;28;20056;-56
2022/04/20 06:17:49;;;;;;;4.53;1.90;;;;;;;;;;4987703;28;20561;-59
2022/04/20 06:20:16;;;;;;;4.63;1.77;;;;;;;;;;4992999;28;20108;-56
2022/04/20 06:22:43;;;;;;;3.50;1.52;;;;;;;;;;4990895;28;20057;-58
2022/04/20 06:25:11;;;;;;;4.13;1.52;;;;;;;;;;4990936;28;20081;-57
2022/04/20 06:27:37;;;;;;;4.18;1.63;;;;;;;;;;4992675;28;20050;-58
2022/04/20 06:30:04;;;;;;;3.80;1.35;;;;;;;;;;4998999;28;20054;-56
2022/04/20 06:32:31;;;;;;;5.13;1.80;;;;;;;;;;4973363;28;20062;-56
2022/04/20 06:35:00;;;;;;;3.70;1.70;;;;;;;;;;4982228;28;20058;-58
2022/04/20 06:37:26;;;;;;;7.32;1.52;;;;;;;;;;4993081;28;20137;-57
2022/04/20 06:39:54;;;;;;;2.75;1.40;;;;;;;;;;4986820;28;20069;-58
2022/04/20 06:42:22;;;;;;;4.97;1.80;;;;;;;;;;4992036;28;20046;-60
2022/04/20 06:44:49;;;;;;;4.25;1.80;;;;;;;;;;4996377;28;20057;-59
2022/04/20 06:47:15;;;;;;;4.47;1.65;;;;;;;;;;5012755;28;20048;-56
2022/04/20 06:49:42;;;;;;;4.85;1.30;;;;;;;;;;5018410;28;20112;-57
2022/04/20 07:00:22;;;;;;;8.30;1.63;;;;;;;;;;4999336;28;20127;-55
2022/04/20 07:02:58;;;;;;;4.88;1.77;;;;;;;;;;5014288;28;20093;-58
2022/04/20 07:05:25;;;;;;;4.15;1.88;;;;;;;;;;4990104;28;20121;-57
2022/04/20 07:07:51;;;;;;;7.55;1.50;;;;;;;;;;4975506;28;20086;-58
2022/04/20 07:10:18;;;;;;;4.22;1.45;;;;;;;;;;5009737;28;20046;-56
2022/04/20 07:12:47;;;;;;;3.67;1.65;;;;;;;;;;4991294;28;20048;-59
2022/04/20 07:15:14;;;;;;;5.75;1.73;;;;;;;;;;4987001;28;20050;-58
2022/04/20 07:17:41;;;;;;;2.78;1.45;;;;;;;;;;4983510;28;20060;-58
2022/04/20 07:20:10;;;;;;;1.77;1.17;;;;;;;;;;4986835;28;20056;-58
2022/04/20 07:22:37;;;;;;;5.28;1.65;;;;;;;;;;4997709;28;20050;-57
2022/04/20 07:25:05;;;;;;;6.80;1.67;;;;;;;;;;4992193;28;20045;-58
2022/04/20 07:27:32;;;;;;;5.70;1.58;;;;;;;;;;5002410;28;20054;-59
2022/04/20 07:30:00;;;;;;;6.38;1.63;;;;;;;;;;4991511;28;20069;-58
2022/04/20 07:32:27;;;;;;;3.92;1.52;;;;;;;;;;4969409;28;20046;-58
2022/04/20 07:34:53;;;;;;;4.20;1.50;;;;;;;;;;4972473;28;20051;-55
2022/04/20 07:37:20;;;;;;;3.05;1.50;;;;;;;;;;4967191;28;20054;-58
2022/04/20 07:39:47;;;;;;;4.05;1.30;;;;;;;;;;4988693;28;20077;-58
2022/04/20 07:42:14;;;;;;;4.88;1.50;;;;;;;;;;4971400;28;20054;-58
2022/04/20 07:44:40;;;;;;;4.85;1.77;;;;;;;;;;4988687;28;20058;-58
2022/04/20 07:47:08;;;;;;;5.45;1.50;;;;;;;;;;4989208;28;20081;-59
2022/04/20 07:52:20;;;;;;;3.25;1.50;;;;;;;;;;4985029;28;20057;-57
2022/04/20 07:54:46;;;;;;;3.25;1.35;;;;;;;;;;4992459;28;20117;-58
2022/04/20 07:57:15;;;;;;;2.55;1.17;;;;;;;;;;4987407;28;20116;-57
2022/04/20 07:59:42;;;;;;;3.53;1.48;;;;;;;;;;4992376;28;20073;-58
2022/04/20 08:02:10;;;;;;;5.13;1.27;;;;;;;;;;4985501;28;20065;-58
2022/04/20 08:04:37;;;;;;;5.35;1.60;;;;;;;;;;4989876;28;20050;-58
2022/04/20 08:07:03;;;;;;;3.35;1.40;;;;;;;;;;4986115;28;20145;-57
2022/04/20 08:09:30;;;;;;;3.38;1.42;;;;;;;;;;5010543;28;20062;-60
2022/04/20 08:11:57;;;;;;;3.03;1.38;;;;;;;;;;5008667;28;20064;-59
2022/04/20 08:14:23;;;;;;;5.95;1.40;;;;;;;;;;4989592;28;20046;-58
2022/04/20 08:16:50;;;;;;;4.30;1.58;;;;;;;;;;4991767;28;20054;-58
2022/04/20 08:19:18;;;;;;;5.57;1.67;;;;;;;;;;4984450;28;20056;-57
2022/04/20 08:21:45;;;;;;;2.30;1.30;;;;;;;;;;4991241;28;20057;-58
2022/04/20 08:24:11;;;;;;;3.30;1.75;;;;;;;;;;4983852;28;20054;-58
2022/04/20 08:26:38;;;;;;;2.78;1.23;;;;;;;;;;4991352;28;20056;-57
2022/04/20 08:29:09;;;;;;;3.42;1.48;;;;;;;;;;4993850;28;20073;-59
2022/04/20 08:31:36;;;;;;;2.92;1.20;;;;;;;;;;4992014;28;20081;-58
2022/04/20 08:34:02;;;;;;;2.33;1.25;;;;;;;;;;4986767;28;20054;-58
2022/04/20 08:36:31;;;;;;;2.90;1.40;;;;;;;;;;4993205;28;20054;-58
2022/04/20 08:38:57;;;;;;;3.78;1.38;;;;;;;;;;4985817;28;20046;-56
2022/04/20 08:41:24;;;;;;;4.07;1.45;;;;;;;;;;5007866;28;20049;-59
2022/04/20 08:43:52;;;;;;;4.72;1.60;;;;;;;;;;4980386;28;20045;-59
2022/04/20 08:46:18;;;;;;;2.70;1.50;;;;;;;;;;4991655;28;20053;-62
2022/04/20 08:48:45;;;;;;;3.75;1.30;;;;;;;;;;4986061;28;20057;-59
2022/04/20 08:51:15;;;;;;;3.15;1.00;;;;;;;;;;4991622;28;20060;-59
2022/04/20 08:53:43;;;;;;;2.38;1.15;;;;;;;;;;4984459;28;20069;-59
2022/04/20 08:58:54;;;;;;;2.10;1.10;;;;;;;;;;4984645;28;20054;-58
2022/04/20 09:01:21;;;;;;;3.70;1.55;;;;;;;;;;4989812;28;20129;-59
2022/04/20 09:03:48;;;;;;;4.72;1.25;;;;;;;;;;4990157;28;20065;-59
2022/04/20 09:06:15;;;;;;;4.50;1.63;;;;;;;;;;4984801;28;20065;-60
2022/04/20 09:08:45;;;;;;;3.00;1.23;;;;;;;;;;5006157;28;20077;-58
2022/04/20 09:11:12;;;;;;;3.28;1.23;;;;;;;;;;4984422;28;20058;-60
2022/04/20 09:13:41;;;;;;;4.35;1.40;;;;;;;;;;4990009;28;20157;-60
2022/04/20 09:16:09;;;;;;;4.18;1.33;;;;;;;;;;4987124;28;20057;-58
2022/04/20 09:18:35;;;;;;;3.80;1.20;;;;;;;;;;4994520;28;20064;-60
2022/04/20 09:21:06;;;;;;;2.45;1.23;;;;;;;;;;4986705;28;20056;-60
2022/04/20 09:23:33;;;;;;;5.13;1.80;;;;;;;;;;4994776;28;20057;-59
2022/04/20 09:26:09;;;;;;;3.33;1.17;;;;;;;;;;4989740;28;20046;-60
2022/04/20 09:28:36;;;;;;;3.63;1.60;;;;;;;;;;4994370;28;20103;-59
2022/04/20 09:31:03;;;;;;;2.80;1.50;;;;;;;;;;4986532;28;20060;-60
2022/04/20 09:33:46;;;;;;;6.43;1.42;;;;;;;;;;4995359;28;20050;-60
2022/04/20 09:36:13;;;;;;;2.45;1.40;;;;;;;;;;4978523;28;20058;-60
2022/04/20 09:38:41;;;;;;;2.55;1.33;;;;;;;;;;4974240;28;20069;-59
2022/04/20 09:41:11;;;;;;;3.05;1.45;;;;;;;;;;4975096;28;20058;-59
2022/04/20 09:43:39;;;;;;;3.30;1.45;;;;;;;;;;4994460;28;20069;-59
2022/04/20 09:48:50;;;;;;;2.78;1.25;;;;;;;;;;4987823;28;20169;-59
2022/04/20 09:48:52;;;;;;;2.42;1.30;;;;;;;;;;4991945;28;20052;-59
2022/04/20 09:51:20;;;;;;;6.05;1.42;;;;;;;;;;4987037;28;20054;-59
2022/04/20 09:53:49;;;;;;;2.65;1.30;;;;;;;;;;4993648;28;20073;-59
2022/04/20 09:56:20;;;;;;;4.10;1.60;;;;;;;;;;4979197;28;20133;-59
2022/04/20 09:58:47;;;;;;;1.92;0.93;;;;;;;;;;4993146;28;20046;-58
2022/04/20 10:01:32;;;;;;;5.25;1.38;;;;;;;;;;4990678;28;20054;-59
2022/04/20 10:03:59;;;;;;;2.72;1.30;;;;;;;;;;5009664;28;20090;-59
2022/04/20 10:06:26;;;;;;;3.65;1.38;;;;;;;;;;5011032;28;20045;-59
2022/04/20 10:08:53;;;;;;;5.07;1.35;;;;;;;;;;4974140;28;20057;-59
2022/04/20 10:11:22;;;;;;;2.08;1.27;;;;;;;;;;4974926;28;20145;-59
2022/04/20 10:16:05;;;;;;;4.32;1.42;;;;;;;;;;4974734;28;20149;-59
2022/04/20 10:16:37;;;;;;;3.03;0.95;;;;;;;;;;4989903;28;20077;-59
2022/04/20 10:19:04;;;;;;;6.38;1.50;;;;;;;;;;4986171;28;20137;-60
2022/04/20 10:21:32;;;;;;;5.30;1.55;;;;;;;;;;4992683;28;20057;-60
2022/04/20 10:24:05;;;;;;;2.28;1.05;;;;;;;;;;5002597;28;20119;-59
2022/04/20 10:26:34;;;;;;;2.63;1.15;;;;;;;;;;5011633;28;20063;-60
2022/04/20 10:29:06;;;;;;;3.83;1.30;;;;;;;;;;5008266;28;20057;-60
2022/04/20 10:31:39;;;;;;;2.90;1.20;;;;;;;;;;4991100;28;20054;-60
2022/04/20 10:34:11;;;;;;;2.97;1.40;;;;;;;;;;4986290;28;20045;-59
2022/04/20 10:36:38;;;;;;;2.88;1.02;;;;;;;;;;4993045;28;20061;-59
2022/04/20 10:39:27;;;;;;;2.60;1.30;;;;;;;;;;4986015;28;20089;-60
2022/04/20 10:42:23;;;;;;;2.75;1.13;;;;;;;;;;5004194;28;20053;-59
2022/04/20 10:45:00;;;;;;;2.60;1.40;;;;;;;;;;4915425;29;20055;-60
2022/04/20 10:47:27;;;;;;;4.85;1.35;;;;;;;;;;4981951;28;20042;-59
2022/04/20 10:50:10;;;;;;;2.33;1.25;;;;;;;;;;4962114;28;20056;-60
2022/04/20 10:52:38;;;;;;;6.13;1.48;;;;;;;;;;4984819;28;20057;-59
2022/04/20 10:55:06;;;;;;;4.35;1.42;;;;;;;;;;5003131;28;20146;-60
2022/04/20 10:57:36;;;;;;;2.05;1.15;;;;;;;;;;4993123;28;20347;-60
2022/04/20 11:00:36;;;;;;;3.53;1.50;;;;;;;;;;4985506;28;20050;-58
2022/04/20 11:03:05;;;;;;;4.63;2.03;;;;;;;;;;4948767;28;20083;-59
2022/04/20 11:05:33;;;;;;;2.55;1.40;;;;;;;;;;4942483;28;20051;-60
2022/04/20 11:08:04;;;;;;;3.65;1.25;;;;;;;;;;4970998;28;20073;-59
2022/04/20 11:10:30;;;;;;;3.58;1.30;;;;;;;;;;5003477;28;20054;-59
2022/04/20 11:19:09;;;;;;;6.45;1.75;;;;;;;;;;4972358;28;20061;-61
2022/04/20 11:21:36;;;;;;;2.30;1.05;;;;;;;;;;4981707;28;20112;-61
2022/04/20 11:24:05;;;;;;;3.53;1.50;;;;;;;;;;4992578;28;20042;-59
2022/04/20 11:26:33;;;;;;;2.25;1.38;;;;;;;;;;4985864;28;20046;-59
2022/04/20 11:29:01;;;;;;;2.65;1.17;;;;;;;;;;4993212;28;20061;-61
2022/04/20 11:31:29;;;;;;;2.92;1.20;;;;;;;;;;4972233;28;20078;-59
2022/04/20 11:34:00;;;;;;;5.03;1.13;;;;;;;;;;4972256;28;20094;-59
2022/04/20 11:36:28;;;;;;;2.95;1.70;;;;;;;;;;4978235;28;20061;-60
2022/04/20 11:38:55;;;;;;;3.47;1.05;;;;;;;;;;4991048;28;20046;-60
2022/04/20 11:41:21;;;;;;;5.20;1.13;;;;;;;;;;4984892;28;20061;-60
2022/04/20 11:43:50;;;;;;;4.63;1.27;;;;;;;;;;4991580;28;20054;-62
2022/04/20 11:46:17;;;;;;;6.35;1.20;;;;;;;;;;4973235;28;20046;-61
2022/04/20 11:48:51;;;;;;;2.35;1.10;;;;;;;;;;4991728;28;20049;-60
2022/04/20 11:51:21;;;;;;;5.55;1.25;;;;;;;;;;4984210;28;20064;-61
2022/04/20 11:53:50;;;;;;;1.60;1.05;;;;;;;;;;4993968;28;20133;-59
2022/04/20 11:56:16;;;;;;;2.50;1.35;;;;;;;;;;4988217;28;20045;-61
2022/04/20 11:58:48;;;;;;;2.00;1.20;;;;;;;;;;4992711;28;20046;-61
2022/04/20 12:01:15;;;;;;;1.80;0.93;;;;;;;;;;4987298;28;20100;-61
2022/04/20 12:03:44;;;;;;;3.83;1.27;;;;;;;;;;4991805;28;20053;-60
2022/04/20 12:06:11;;;;;;;1.98;1.00;;;;;;;;;;4986906;28;20088;-60
2022/04/20 12:08:40;;;;;;;2.80;1.00;;;;;;;;;;4970722;28;20062;-59
2022/04/20 12:11:08;;;;;;;3.03;1.08;;;;;;;;;;4987353;28;20142;-61
2022/04/20 12:13:35;;;;;;;1.83;0.88;;;;;;;;;;5001023;28;20058;-59
2022/04/20 12:16:02;;;;;;;3.08;1.20;;;;;;;;;;4991213;28;20058;-59
2022/04/20 12:18:29;;;;;;;2.88;1.02;;;;;;;;;;4984675;28;20053;-61
2022/04/20 12:20:56;;;;;;;1.65;1.02;;;;;;;;;;4990607;28;20046;-60
2022/04/20 12:23:22;;;;;;;2.55;1.10;;;;;;;;;;4985051;28;20062;-61
2022/04/20 12:25:53;;;;;;;2.63;1.45;;;;;;;;;;4991231;28;20053;-59
2022/04/20 12:28:43;;;;;;;3.05;1.00;;;;;;;;;;4984386;28;20129;-59
2022/04/20 12:31:12;;;;;;;2.50;1.08;;;;;;;;;;4990618;28;20057;-60
2022/04/20 12:33:39;;;;;;;1.23;0.82;;;;;;;;;;4984699;28;20054;-60
2022/04/20 12:36:08;;;;;;;3.10;1.38;;;;;;;;;;4990490;28;20038;-60
2022/04/20 12:38:34;;;;;;;;;;;;;;;;;;4992485;28;20046;-60
2022/04/20 12:41:01;;;;;;;1.25;0.82;;;;;;;;;;5010889;28;19929;-59
2022/04/20 12:43:36;;;;;;;1.95;0.93;;;;;;;;;;5004400;28;20050;-60
2022/04/20 12:46:18;;;;;;;7.43;1.40;;;;;;;;;;4991412;28;20056;-60
2022/04/20 12:48:44;;;;;;;3.00;1.35;;;;;;;;;;4979561;28;20088;-61
2022/04/20 12:51:21;;;;;;;1.95;1.10;;;;;;;;;;4982686;28;20058;-61
2022/04/20 12:53:48;;;;;;;7.20;1.40;;;;;;;;;;4979000;28;20159;-59
2022/04/20 13:02:06;;;;;;;4.72;1.40;;;;;;;;;;4983984;28;20057;-59
2022/04/20 13:04:34;;;;;;;3.75;1.05;;;;;;;;;;4979551;28;20049;-60
2022/04/20 13:07:00;;;;;;;4.03;1.20;;;;;;;;;;4977400;28;20054;-59
2022/04/20 13:09:27;;;;;;;4.28;1.55;;;;;;;;;;4954407;28;20054;-59
2022/04/20 13:11:54;;;;;;;3.83;1.30;;;;;;;;;;4971908;28;20050;-59
2022/04/20 13:14:24;;;;;;;3.20;1.40;;;;;;;;;;4965713;28;20046;-61
2022/04/20 13:16:50;;;;;;;10.30;1.75;;;;;;;;;;4972542;28;20145;-59
2022/04/20 13:19:17;;;;;;;5.28;1.20;;;;;;;;;;4965186;28;20058;-59
2022/04/20 13:21:45;;;;;;;2.45;1.38;;;;;;;;;;4971517;28;20054;-59
2022/04/20 13:27:53;;;;;;;2.90;1.42;;;;;;;;;;4967497;28;20116;-60
2022/04/20 13:29:47;;;;;;;3.78;1.58;;;;;;;;;;4949231;28;20046;-61
2022/04/20 13:32:14;;;;;;;4.45;1.35;;;;;;;;;;4971278;28;20114;-61
2022/04/20 13:34:44;;;;;;;3.25;1.52;;;;;;;;;;4967788;28;20065;-59
2022/04/20 13:37:13;;;;;;;5.18;1.80;;;;;;;;;;4965173;28;20046;-61
2022/04/20 13:39:39;;;;;;;2.10;1.05;;;;;;;;;;4969812;28;20086;-60
2022/04/20 13:42:08;;;;;;;2.33;1.08;;;;;;;;;;4947562;28;20133;-61
2022/04/20 13:44:34;;;;;;;6.40;1.15;;;;;;;;;;4970596;28;20078;-60
2022/04/20 13:47:03;;;;;;;4.30;1.40;;;;;;;;;;4964351;28;20054;-61
2022/04/20 13:49:29;;;;;;;3.50;1.27;;;;;;;;;;4970325;28;20054;-60
2022/04/20 13:51:56;;;;;;;6.75;1.40;;;;;;;;;;4964066;28;20056;-60
2022/04/20 13:54:23;;;;;;;2.25;1.08;;;;;;;;;;4970863;28;20120;-60
2022/04/20 13:56:50;;;;;;;5.47;1.08;;;;;;;;;;4975632;28;20156;-61
2022/04/20 13:59:17;;;;;;;1.48;0.98;;;;;;;;;;4951786;28;20057;-61
2022/04/20 14:01:44;;;;;;;2.67;1.20;;;;;;;;;;4963405;28;20056;-62
2022/04/20 14:04:12;;;;;;;4.22;1.58;;;;;;;;;;4993475;28;20112;-61
2022/04/20 14:06:38;;;;;;;2.20;1.08;;;;;;;;;;4970438;28;20042;-61
2022/04/20 14:09:06;;;;;;;3.70;0.90;;;;;;;;;;4992960;28;20052;-61
2022/04/20 14:11:33;;;;;;;2.35;1.02;;;;;;;;;;4987098;28;20092;-61
2022/04/20 14:14:01;;;;;;;2.58;1.20;;;;;;;;;;4993062;28;20069;-60
2022/04/20 14:16:31;;;;;;;3.05;0.95;;;;;;;;;;4987380;28;20045;-62
2022/04/20 14:18:57;;;;;;;2.22;1.10;;;;;;;;;;4992970;28;21313;-60
2022/04/20 14:21:25;;;;;;;3.58;1.33;;;;;;;;;;4989658;28;20050;-61
2022/04/20 14:23:53;;;;;;;1.48;0.90;;;;;;;;;;4992612;28;20121;-61
2022/04/20 14:34:33;;;;;;;1.40;1.00;;;;;;;;;;4974102;28;20050;-62
2022/04/20 14:37:01;;;;;;;3.00;1.10;;;;;;;;;;4972742;28;20050;-61
2022/04/20 14:39:27;;;;;;;2.38;0.88;;;;;;;;;;5008053;28;20053;-62
2022/04/20 14:41:55;;;;;;;2.42;0.95;;;;;;;;;;5012791;28;20045;-63
2022/04/20 14:44:22;;;;;;;2.80;0.90;;;;;;;;;;4981903;28;20105;-62
2022/04/20 14:46:49;;;;;;;1.30;0.85;;;;;;;;;;4992196;28;20050;-62
2022/04/20 14:49:16;;;;;;;2.95;1.17;;;;;;;;;;4987041;28;20068;-60
2022/04/20 14:51:44;;;;;;;2.70;0.88;;;;;;;;;;4991910;28;20069;-60
2022/04/20 14:54:12;;;;;;;1.80;1.08;;;;;;;;;;4986141;28;20049;-60
2022/04/20 14:56:39;;;;;;;2.30;1.10;;;;;;;;;;4991856;28;20046;-60
2022/04/20 14:59:05;;;;;;;1.30;0.73;;;;;;;;;;4992077;28;20053;-60
2022/04/20 15:01:32;;;;;;;4.97;1.40;;;;;;;;;;5008704;28;20060;-61
2022/04/20 15:04:00;;;;;;;1.80;1.10;;;;;;;;;;4992167;28;20077;-62
2022/04/20 15:06:27;;;;;;;2.25;0.90;;;;;;;;;;4988080;28;20058;-60
2022/04/20 15:08:54;;;;;;;3.33;0.85;;;;;;;;;;4985877;28;20042;-60
2022/04/20 15:11:23;;;;;;;5.43;1.10;;;;;;;;;;5011325;28;20057;-62
2022/04/20 15:13:50;;;;;;;4.57;1.20;;;;;;;;;;4978123;28;20056;-60
2022/04/20 15:16:17;;;;;;;1.92;1.05;;;;;;;;;;4996077;28;20046;-61
2022/04/20 15:18:44;;;;;;;1.30;1.00;;;;;;;;;;4986295;28;20054;-61
2022/04/20 15:21:11;;;;;;;1.77;1.10;;;;;;;;;;4987275;28;20050;-60
2022/04/20 15:23:40;;;;;;;2.25;0.90;;;;;;;;;;4994391;28;20053;-62
2022/04/20 15:26:06;;;;;;;3.92;1.20;;;;;;;;;;4988700;28;20078;-61
2022/04/20 15:28:35;;;;;;;2.85;1.10;;;;;;;;;;4986296;28;20054;-60
2022/04/20 15:31:04;;;;;;;2.38;1.23;;;;;;;;;;4982426;28;20079;-60
2022/04/20 15:33:30;;;;;;;3.83;1.40;;;;;;;;;;4990779;28;20050;-62
2022/04/20 15:35:57;;;;;;;6.75;1.38;;;;;;;;;;4981041;28;20050;-61
2022/04/20 15:38:24;;;;;;;2.30;1.08;;;;;;;;;;4989243;28;20054;-61